Time;durP1;ratioP1;P1;durP2;ratioP2;P2;SDS_P1;SDS_P2;PMS_P1;PMS_P2;Temp;Humidity;BMP_temperature;BMP_pressure;BME280_temperature;BME280_humidity;BME280_pressure;Samples;Min_cycle;Max_cycle;Signal;HPM_P1;HPM_P2
2023/08/25 00:00:57;;;;;;;16.58;14.18;;;18.30;99.90;;;;;;4944808;28;20057;-79
2023/08/25 00:03:24;;;;;;;15.25;12.63;;;18.30;99.90;;;;;;4942359;28;20062;-77
2023/08/25 00:05:53;;;;;;;19.55;15.65;;;18.20;99.90;;;;;;4941401;28;20055;-78
2023/08/25 00:08:19;;;;;;;17.15;15.35;;;18.20;99.90;;;;;;4940569;28;20046;-78
2023/08/25 00:10:45;;;;;;;21.58;15.98;;;18.10;99.90;;;;;;4923038;28;20646;-78
2023/08/25 00:13:12;;;;;;;17.00;15.05;;;18.10;99.90;;;;;;4942169;28;20055;-78
2023/08/25 00:15:40;;;;;;;17.85;15.25;;;18.10;99.90;;;;;;4940115;28;20046;-78
2023/08/25 00:18:06;;;;;;;19.33;16.13;;;18.00;99.90;;;;;;4941154;28;20058;-77
2023/08/25 00:20:31;;;;;;;19.10;15.90;;;18.00;99.90;;;;;;4939357;28;20057;-77
2023/08/25 00:22:57;;;;;;;18.77;16.77;;;18.00;99.90;;;;;;4940959;28;20053;-79
2023/08/25 00:25:23;;;;;;;18.05;16.15;;;18.00;99.90;;;;;;4946006;28;20051;-76
2023/08/25 00:27:49;;;;;;;21.27;17.75;;;18.00;99.90;;;;;;4939007;28;20806;-78
2023/08/25 00:30:15;;;;;;;18.92;16.42;;;18.00;99.90;;;;;;4923375;28;20837;-78
2023/08/25 00:32:40;;;;;;;21.70;17.58;;;18.00;99.90;;;;;;4942449;28;20133;-79
2023/08/25 00:35:07;;;;;;;22.23;19.50;;;18.00;99.90;;;;;;4940808;28;20074;-77
2023/08/25 00:37:33;;;;;;;20.55;18.30;;;18.00;99.90;;;;;;4926804;28;20090;-78
2023/08/25 00:39:59;;;;;;;21.23;19.02;;;18.10;99.90;;;;;;4941050;28;20130;-77
2023/08/25 00:42:24;;;;;;;20.40;18.30;;;18.10;99.90;;;;;;4957525;28;20046;-78
2023/08/25 00:44:50;;;;;;;22.13;19.20;;;18.00;99.90;;;;;;4946824;28;20054;-77
2023/08/25 00:47:17;;;;;;;23.67;19.85;;;18.00;99.90;;;;;;4942198;28;20171;-79
2023/08/25 00:49:43;;;;;;;27.88;22.38;;;18.00;99.90;;;;;;4940127;28;20083;-78
2023/08/25 00:52:10;;;;;;;23.27;19.83;;;17.80;99.90;;;;;;4934391;28;20054;-78
2023/08/25 00:54:37;;;;;;;23.90;20.80;;;18.00;99.90;;;;;;4940954;28;20051;-79
2023/08/25 00:57:03;;;;;;;27.05;22.52;;;18.00;99.90;;;;;;4941733;28;20062;-78
2023/08/25 00:59:33;;;;;;;25.33;21.55;;;18.00;99.90;;;;;;4939747;28;20054;-79
2023/08/25 01:01:59;;;;;;;25.17;22.38;;;18.00;99.90;;;;;;4939189;28;20145;-78
2023/08/25 01:04:25;;;;;;;27.13;23.42;;;18.00;99.90;;;;;;4924116;28;20050;-78
2023/08/25 01:06:51;;;;;;;25.45;21.05;;;18.10;99.90;;;;;;4934186;28;20057;-77
2023/08/25 01:09:17;;;;;;;28.25;23.90;;;18.20;99.90;;;;;;4924042;28;20461;-76
2023/08/25 01:12:08;;;;;;;25.80;23.02;;;18.20;99.90;;;;;;4944553;28;20621;-79
2023/08/25 01:15:06;;;;;;;28.45;25.02;;;18.30;99.90;;;;;;4938285;28;20064;-78
2023/08/25 01:17:32;;;;;;;24.88;21.60;;;18.30;99.90;;;;;;4941733;28;20168;-78
2023/08/25 01:20:01;;;;;;;24.52;21.92;;;18.40;99.90;;;;;;4944559;28;20579;-78
2023/08/25 01:22:33;;;;;;;27.65;24.05;;;18.40;99.90;;;;;;4942440;28;20696;-80
2023/08/25 01:25:23;;;;;;;26.23;23.38;;;18.40;99.90;;;;;;4941662;28;20547;-79
2023/08/25 01:27:50;;;;;;;30.67;25.05;;;18.50;99.90;;;;;;4911957;28;20055;-78
2023/08/25 01:30:16;;;;;;;30.45;25.35;;;18.50;99.90;;;;;;4940721;28;20142;-78
2023/08/25 01:32:41;;;;;;;26.70;23.70;;;18.50;99.90;;;;;;4940815;28;20047;-79
2023/08/25 01:35:08;;;;;;;27.08;24.17;;;18.60;99.90;;;;;;4940451;28;20078;-80
2023/08/25 01:38:02;;;;;;;29.25;26.20;;;18.60;99.90;;;;;;4927012;28;20047;-78
2023/08/25 01:40:35;;;;;;;29.45;23.63;;;18.60;99.90;;;;;;4941490;28;20065;-79
2023/08/25 01:43:02;;;;;;;29.98;25.38;;;18.70;99.90;;;;;;4925103;28;20053;-79
2023/08/25 01:45:28;;;;;;;29.52;26.05;;;18.70;99.90;;;;;;4940844;28;20121;-79
2023/08/25 01:47:56;;;;;;;24.95;21.33;;;18.60;99.90;;;;;;4938897;28;20081;-79
2023/08/25 01:50:23;;;;;;;27.60;24.55;;;18.60;99.90;;;;;;4938390;28;20047;-79
2023/08/25 01:52:49;;;;;;;27.20;22.85;;;18.60;99.90;;;;;;4925269;28;20055;-78
2023/08/25 01:55:15;;;;;;;27.90;24.50;;;18.50;99.90;;;;;;4947074;28;20061;-78
2023/08/25 01:57:43;;;;;;;29.25;25.27;;;18.40;99.90;;;;;;4944762;28;20059;-77
2023/08/25 02:00:10;;;;;;;29.80;26.60;;;18.30;99.90;;;;;;4946376;28;20055;-79
2023/08/25 02:02:36;;;;;;;32.38;26.08;;;18.30;99.90;;;;;;4946813;28;20053;-79
2023/08/25 02:05:02;;;;;;;27.55;24.65;;;18.20;99.90;;;;;;4942603;28;20050;-79
2023/08/25 02:07:28;;;;;;;30.13;25.45;;;18.20;99.90;;;;;;4941551;28;20069;-79
2023/08/25 02:09:55;;;;;;;28.50;25.33;;;18.10;99.90;;;;;;4927178;28;20054;-77
2023/08/25 02:12:21;;;;;;;29.27;26.17;;;18.10;99.90;;;;;;4941097;28;20560;-78
2023/08/25 02:14:46;;;;;;;43.72;29.48;;;18.00;99.90;;;;;;4944029;28;20145;-80
2023/08/25 02:17:12;;;;;;;33.03;28.98;;;18.00;99.90;;;;;;4934930;28;20047;-81
2023/08/25 02:19:38;;;;;;;33.78;27.98;;;18.00;99.90;;;;;;4940772;28;20477;-80
2023/08/25 02:22:04;;;;;;;27.75;24.75;;;17.90;99.90;;;;;;4928217;28;20085;-80
2023/08/25 02:24:30;;;;;;;37.65;29.27;;;17.80;99.90;;;;;;4943975;28;20051;-79
2023/08/25 02:26:56;;;;;;;39.22;31.38;;;17.80;99.90;;;;;;4927198;28;20062;-80
2023/08/25 02:29:22;;;;;;;39.53;30.92;;;18.10;99.90;;;;;;4943299;28;20062;-79
2023/08/25 02:31:47;;;;;;;43.80;33.13;;;17.70;99.90;;;;;;4925750;28;20545;-80
2023/08/25 02:34:13;;;;;;;48.47;34.47;;;17.70;99.90;;;;;;4941245;28;20799;-80
2023/08/25 02:36:39;;;;;;;45.90;33.47;;;17.60;99.90;;;;;;4947700;28;20137;-80
2023/08/25 02:39:04;;;;;;;44.88;32.97;;;17.60;99.90;;;;;;4950815;28;20050;-78
2023/08/25 02:41:30;;;;;;;44.58;33.42;;;17.60;99.90;;;;;;4943723;28;20566;-78
2023/08/25 02:43:56;;;;;;;49.83;36.25;;;17.50;99.90;;;;;;4944716;28;20986;-79
2023/08/25 02:46:21;;;;;;;43.50;34.20;;;17.50;99.90;;;;;;4945013;28;20059;-78
2023/08/25 02:48:47;;;;;;;43.75;33.63;;;17.50;99.90;;;;;;4939935;28;20054;-78
2023/08/25 02:51:13;;;;;;;45.83;34.90;;;17.50;99.90;;;;;;4938309;28;20512;-80
2023/08/25 02:53:39;;;;;;;47.50;35.75;;;17.40;99.90;;;;;;4943663;28;20054;-79
2023/08/25 02:56:04;;;;;;;44.05;34.42;;;17.40;99.90;;;;;;4949704;28;20046;-79
2023/08/25 02:58:30;;;;;;;52.78;35.63;;;17.40;99.90;;;;;;4942540;28;20786;-78
2023/08/25 03:00:56;;;;;;;49.55;36.30;;;17.40;99.90;;;;;;4952297;28;20711;-80
2023/08/25 03:03:22;;;;;;;55.78;38.10;;;17.40;99.90;;;;;;4948107;28;20065;-78
2023/08/25 03:05:49;;;;;;;52.88;39.85;;;17.40;99.90;;;;;;4942034;28;20066;-79
2023/08/25 03:08:15;;;;;;;59.95;41.05;;;17.50;99.90;;;;;;4945580;28;20115;-79
2023/08/25 03:10:44;;;;;;;64.35;42.25;;;17.40;99.90;;;;;;4942136;28;20877;-79
2023/08/25 03:13:10;;;;;;;64.20;40.65;;;17.40;99.90;;;;;;4941503;28;20085;-79
2023/08/25 03:15:36;;;;;;;55.72;40.45;;;17.40;99.90;;;;;;4942208;28;20054;-79
2023/08/25 03:18:02;;;;;;;65.18;42.03;;;17.40;99.90;;;;;;4947674;28;20054;-76
2023/08/25 03:20:27;;;;;;;54.03;39.03;;;17.30;99.90;;;;;;4935605;28;20146;-79
2023/08/25 03:22:54;;;;;;;58.28;40.45;;;17.30;99.90;;;;;;4938103;28;20057;-76
2023/08/25 03:25:19;;;;;;;67.90;44.70;;;17.30;99.90;;;;;;4946721;28;20138;-79
2023/08/25 03:27:45;;;;;;;51.45;38.65;;;17.30;99.90;;;;;;4942072;28;20612;-77
2023/08/25 03:30:11;;;;;;;59.78;42.67;;;17.20;99.90;;;;;;4942111;28;20065;-80
2023/08/25 03:32:37;;;;;;;64.47;42.03;;;17.20;99.90;;;;;;4942751;28;20043;-80
2023/08/25 03:35:03;;;;;;;68.45;43.55;;;17.20;99.90;;;;;;4959927;28;20061;-80
2023/08/25 03:37:29;;;;;;;67.25;43.60;;;17.20;99.90;;;;;;4950967;28;20062;-78
2023/08/25 03:39:55;;;;;;;66.43;42.03;;;17.10;99.90;;;;;;4946535;28;20078;-79
2023/08/25 03:42:21;;;;;;;67.30;44.70;;;17.20;99.90;;;;;;4943361;28;20057;-78
2023/08/25 03:44:48;;;;;;;70.15;44.35;;;17.10;99.90;;;;;;4940917;28;20469;-78
2023/08/25 03:47:13;;;;;;;68.80;44.45;;;17.10;99.90;;;;;;4944282;28;20055;-78
2023/08/25 03:49:39;;;;;;;72.70;43.33;;;17.10;99.90;;;;;;4940945;28;20141;-79
2023/08/25 03:52:05;;;;;;;72.03;46.10;;;17.10;99.90;;;;;;4926902;28;20575;-78
2023/08/25 03:54:31;;;;;;;59.50;42.55;;;17.10;99.90;;;;;;4942689;28;20045;-80
2023/08/25 03:57:00;;;;;;;62.20;42.60;;;17.00;99.90;;;;;;4946407;28;20517;-79
2023/08/25 03:59:26;;;;;;;66.00;42.20;;;17.00;99.90;;;;;;4943932;28;20456;-77
2023/08/25 04:01:51;;;;;;;53.70;39.88;;;17.00;99.90;;;;;;4941192;28;20129;-79
2023/08/25 04:04:17;;;;;;;63.60;40.25;;;16.90;99.90;;;;;;4954504;28;20129;-78
2023/08/25 04:06:43;;;;;;;63.80;41.00;;;16.90;99.90;;;;;;4923388;28;20194;-78
2023/08/25 04:09:09;;;;;;;67.85;40.95;;;16.90;99.90;;;;;;4925537;28;20047;-76
2023/08/25 04:11:35;;;;;;;56.83;39.65;;;16.90;99.90;;;;;;4941320;28;20062;-77
2023/08/25 04:14:01;;;;;;;58.33;39.83;;;16.80;99.90;;;;;;4940982;28;20091;-79
2023/08/25 04:16:27;;;;;;;69.60;42.60;;;16.80;99.90;;;;;;4924241;28;20822;-79
2023/08/25 04:18:53;;;;;;;66.88;43.15;;;16.80;99.90;;;;;;4940237;28;20055;-77
2023/08/25 04:21:18;;;;;;;75.05;44.58;;;16.90;99.90;;;;;;4938303;28;20062;-79
2023/08/25 04:23:44;;;;;;;63.72;43.58;;;16.90;99.90;;;;;;4944070;28;20039;-79
2023/08/25 04:26:10;;;;;;;81.53;45.17;;;17.00;99.90;;;;;;4941136;28;20050;-77
2023/08/25 04:28:35;;;;;;;68.18;45.22;;;15.00;99.90;;;;;;4941085;28;20055;-77
2023/08/25 04:31:02;;;;;;;65.38;43.75;;;17.10;99.90;;;;;;4942385;28;20058;-77
2023/08/25 04:33:27;;;;;;;70.80;44.85;;;17.20;99.90;;;;;;4928541;28;20058;-79
2023/08/25 04:35:53;;;;;;;66.70;43.08;;;17.20;99.90;;;;;;4940328;28;20050;-78
2023/08/25 04:38:19;;;;;;;75.82;46.92;;;17.30;99.90;;;;;;4939996;28;20624;-79
2023/08/25 04:40:45;;;;;;;79.10;47.30;;;17.30;99.90;;;;;;4940096;28;20927;-80
2023/08/25 04:43:11;;;;;;;72.97;44.50;;;17.40;99.90;;;;;;4940169;28;20685;-77
2023/08/25 04:45:37;;;;;;;83.18;45.20;;;17.40;99.90;;;;;;4940377;28;20511;-79
2023/08/25 04:48:03;;;;;;;78.75;45.88;;;17.50;99.90;;;;;;4937841;28;20049;-79
2023/08/25 04:50:28;;;;;;;69.53;45.42;;;17.50;99.90;;;;;;4939750;28;20046;-78
2023/08/25 04:52:54;;;;;;;73.20;46.65;;;17.60;99.90;;;;;;4939038;28;20043;-79
2023/08/25 04:55:20;;;;;;;80.15;48.20;;;19.80;99.90;;;;;;4940177;28;20053;-80
2023/08/25 04:57:46;;;;;;;74.03;47.67;;;17.70;99.90;;;;;;4929246;28;20061;-78
2023/08/25 05:00:12;;;;;;;81.00;48.40;;;17.70;99.90;;;;;;4936052;28;20046;-80
2023/08/25 05:02:38;;;;;;;101.38;53.25;;;17.80;99.90;;;;;;4939970;28;20165;-78
2023/08/25 05:05:06;;;;;;;81.95;47.75;;;17.90;99.90;;;;;;4939829;28;20386;-77
2023/08/25 05:07:32;;;;;;;93.43;52.30;;;17.90;99.90;;;;;;4923905;28;20067;-79
2023/08/25 05:09:58;;;;;;;76.70;48.33;;;18.00;99.90;;;;;;4941263;28;20581;-80
2023/08/25 05:12:24;;;;;;;81.65;49.30;;;18.00;99.90;;;;;;4939703;28;20050;-78
2023/08/25 05:14:50;;;;;;;85.63;52.15;;;18.10;99.90;;;;;;4940854;28;20112;-78
2023/08/25 05:17:15;;;;;;;81.20;51.15;;;18.10;99.90;;;;;;4945089;28;20057;-78
2023/08/25 05:19:41;;;;;;;89.82;53.53;;;18.20;99.90;;;;;;4944007;28;20039;-79
2023/08/25 05:22:07;;;;;;;82.03;51.65;;;18.30;99.90;;;;;;4940066;28;20169;-79
2023/08/25 05:24:33;;;;;;;76.57;51.42;;;18.40;99.90;;;;;;4939351;28;20051;-79
2023/08/25 05:26:59;;;;;;;85.15;52.38;;;18.50;99.90;;;;;;4924102;28;20144;-77
2023/08/25 05:29:27;;;;;;;77.80;51.67;;;18.60;99.90;;;;;;4923445;28;20046;-78
2023/08/25 05:31:54;;;;;;;75.57;51.55;;;18.70;99.90;;;;;;4923474;28;20094;-78
2023/08/25 05:34:20;;;;;;;74.53;48.88;;;18.70;99.90;;;;;;4940938;28;20054;-77
2023/08/25 05:36:46;;;;;;;70.35;48.53;;;18.80;99.90;;;;;;4943842;28;20046;-79
2023/08/25 05:39:12;;;;;;;72.47;49.50;;;16.20;99.90;;;;;;4943309;28;20055;-79
2023/08/25 05:41:38;;;;;;;69.40;48.03;;;19.00;99.90;;;;;;4927165;28;20069;-78
2023/08/25 05:44:04;;;;;;;57.70;43.53;;;19.10;99.90;;;;;;4950533;28;20047;-80
2023/08/25 05:46:31;;;;;;;72.97;45.85;;;19.20;99.90;;;;;;4944114;28;20161;-80
2023/08/25 05:48:57;;;;;;;63.70;46.75;;;19.30;99.90;;;;;;4957458;28;20935;-78
2023/08/25 05:51:24;;;;;;;57.47;44.17;;;19.40;99.90;;;;;;4934808;28;20076;-79
2023/08/25 05:54:10;;;;;;;59.75;45.45;;;19.50;99.90;;;;;;4897372;29;20123;-78
2023/08/25 05:56:36;;;;;;;60.05;42.47;;;19.60;99.90;;;;;;4901720;29;20052;-79
2023/08/25 05:59:02;;;;;;;51.83;40.25;;;19.60;99.90;;;;;;4900087;29;20570;-78
2023/08/25 06:01:28;;;;;;;56.25;42.38;;;19.70;99.90;;;;;;4902353;29;20048;-78
2023/08/25 06:03:54;;;;;;;58.85;44.17;;;19.70;99.90;;;;;;4906340;29;20203;-80
2023/08/25 06:06:20;;;;;;;55.22;40.78;;;19.70;99.90;;;;;;4903332;29;20055;-80
2023/08/25 06:08:46;;;;;;;55.70;41.60;;;19.70;99.90;;;;;;4924145;29;20074;-81
2023/08/25 06:11:13;;;;;;;58.80;43.55;;;17.60;99.90;;;;;;4902393;29;20051;-78
2023/08/25 06:13:39;;;;;;;58.88;43.17;;;19.70;99.90;;;;;;4910036;29;20060;-79
2023/08/25 06:16:05;;;;;;;58.30;41.13;;;19.80;99.90;;;;;;4905041;29;20047;-78
2023/08/25 06:18:31;;;;;;;60.20;44.53;;;19.90;99.90;;;;;;4913742;29;20091;-78
2023/08/25 06:20:56;;;;;;;58.58;45.22;;;20.00;99.90;;;;;;4887734;29;20857;-78
2023/08/25 06:23:22;;;;;;;45.72;36.20;;;20.10;99.90;;;;;;4886486;29;20142;-78
2023/08/25 06:25:49;;;;;;;50.92;40.25;;;20.20;99.90;;;;;;4931541;28;20126;-78
2023/08/25 06:28:14;;;;;;;51.30;38.15;;;20.40;99.90;;;;;;4925716;28;20054;-78
2023/08/25 06:30:43;;;;;;;52.03;39.70;;;20.40;99.90;;;;;;4941903;28;20043;-79
2023/08/25 06:33:10;;;;;;;40.00;32.75;;;20.40;99.90;;;;;;4929920;28;20122;-78
2023/08/25 06:35:39;;;;;;;48.63;38.67;;;20.50;99.90;;;;;;4938392;28;20571;-79
2023/08/25 06:38:05;;;;;;;42.35;32.47;;;20.60;99.90;;;;;;4940754;28;20812;-80
2023/08/25 06:40:35;;;;;;;37.92;32.13;;;20.70;99.90;;;;;;4925877;28;20094;-79
2023/08/25 06:43:02;;;;;;;42.28;33.83;;;20.80;99.90;;;;;;4941387;28;20054;-79
2023/08/25 06:45:29;;;;;;;47.83;36.65;;;20.90;99.90;;;;;;4957057;28;20205;-79
2023/08/25 06:47:55;;;;;;;41.25;32.28;;;21.00;99.90;;;;;;4940826;28;20732;-80
2023/08/25 06:50:22;;;;;;;44.42;33.00;;;21.40;99.90;;;;;;4940351;28;20042;-78
2023/08/25 06:52:48;;;;;;;37.63;32.33;;;21.60;99.90;;;;;;4938142;28;20043;-79
2023/08/25 06:55:17;;;;;;;39.65;33.00;;;21.60;99.90;;;;;;4937558;28;20736;-79
2023/08/25 06:57:42;;;;;;;41.05;35.75;;;21.80;99.90;;;;;;4942371;28;20109;-79
2023/08/25 07:00:09;;;;;;;44.50;36.92;;;21.90;99.90;;;;;;4927480;28;20054;-80
2023/08/25 07:02:36;;;;;;;46.72;35.28;;;22.00;99.90;;;;;;4943419;28;20051;-79
2023/08/25 07:05:02;;;;;;;40.42;33.70;;;22.10;99.90;;;;;;4941391;28;20109;-80
2023/08/25 07:07:28;;;;;;;37.58;31.35;;;22.30;99.90;;;;;;4941238;28;20513;-78
2023/08/25 07:09:53;;;;;;;39.60;33.38;;;22.30;99.90;;;;;;4948058;28;20540;-79
2023/08/25 07:12:19;;;;;;;38.22;31.55;;;22.30;99.90;;;;;;4959265;28;20061;-79
2023/08/25 07:14:45;;;;;;;36.63;31.05;;;22.30;99.90;;;;;;4944929;28;20076;-79
2023/08/25 07:17:11;;;;;;;34.90;27.23;;;22.30;99.90;;;;;;4944411;28;20129;-79
2023/08/25 07:19:37;;;;;;;31.88;25.25;;;22.40;99.90;;;;;;4940644;28;20046;-79
2023/08/25 07:22:03;;;;;;;39.60;33.60;;;22.60;99.90;;;;;;4939462;28;20078;-79
2023/08/25 07:24:29;;;;;;;31.13;26.63;;;22.70;99.90;;;;;;4956922;28;20063;-78
2023/08/25 07:26:55;;;;;;;38.92;31.77;;;22.80;99.90;;;;;;4940542;28;20059;-77
2023/08/25 07:29:20;;;;;;;36.90;31.00;;;23.00;99.90;;;;;;4925050;28;20951;-78
2023/08/25 07:31:51;;;;;;;33.83;28.58;;;23.50;99.90;;;;;;4926392;28;20077;-79
2023/08/25 07:34:17;;;;;;;33.03;27.48;;;23.90;99.90;;;;;;4945497;28;20463;-78
2023/08/25 07:36:43;;;;;;;33.47;27.88;;;24.20;99.90;;;;;;4926543;28;20051;-78
2023/08/25 07:39:08;;;;;;;33.22;28.40;;;24.50;99.90;;;;;;4926843;29;20086;-76
2023/08/25 07:41:34;;;;;;;33.58;27.75;;;24.80;99.90;;;;;;4943316;28;20190;-78
2023/08/25 07:44:02;;;;;;;35.72;27.58;;;24.90;99.90;;;;;;4944479;28;20051;-77
2023/08/25 07:46:28;;;;;;;33.30;28.13;;;25.10;99.90;;;;;;4943154;28;20603;-79
2023/08/25 07:48:53;;;;;;;30.73;24.98;;;25.30;99.90;;;;;;4951543;28;20138;-79
2023/08/25 07:51:19;;;;;;;28.17;23.77;;;25.50;99.90;;;;;;4934089;28;20138;-77
2023/08/25 07:53:45;;;;;;;31.98;26.27;;;25.50;99.90;;;;;;4934835;28;20057;-79
2023/08/25 07:56:11;;;;;;;24.75;21.55;;;25.30;99.90;;;;;;4940359;28;20558;-79
2023/08/25 07:58:37;;;;;;;25.15;22.45;;;25.10;99.90;;;;;;4939516;28;20451;-79
2023/08/25 08:01:03;;;;;;;33.03;25.58;;;24.80;99.90;;;;;;4932452;28;20497;-80
2023/08/25 08:03:29;;;;;;;27.20;22.77;;;24.70;99.90;;;;;;4940075;28;20150;-78
2023/08/25 08:05:55;;;;;;;30.42;24.50;;;27.20;99.90;;;;;;4960850;28;20077;-80
2023/08/25 08:08:21;;;;;;;29.15;25.52;;;24.20;99.90;;;;;;4939650;28;20440;-80
2023/08/25 08:10:46;;;;;;;31.10;23.35;;;24.10;99.90;;;;;;4944311;28;20046;-79
2023/08/25 08:13:12;;;;;;;33.67;26.10;;;23.90;99.90;;;;;;4955822;28;20607;-78
2023/08/25 08:15:38;;;;;;;29.27;23.85;;;23.80;99.90;;;;;;4928346;28;20097;-79
2023/08/25 08:18:04;;;;;;;29.02;24.30;;;23.70;99.90;;;;;;4955707;28;20053;-79
2023/08/25 08:20:33;;;;;;;30.05;25.00;;;22.80;99.90;;;;;;4939799;28;20122;-79
2023/08/25 08:23:00;;;;;;;30.98;25.90;;;23.80;99.90;;;;;;4939121;28;20260;-80
2023/08/25 08:25:26;;;;;;;34.15;26.17;;;23.90;99.90;;;;;;4939570;28;20069;-79
2023/08/25 08:27:51;;;;;;;33.58;27.08;;;23.90;99.90;;;;;;4939508;28;20141;-79
2023/08/25 08:30:19;;;;;;;38.42;30.25;;;23.90;99.90;;;;;;4940408;28;20046;-79
2023/08/25 08:32:45;;;;;;;39.13;30.17;;;23.90;99.90;;;;;;4939133;28;20073;-79
2023/08/25 08:35:12;;;;;;;33.63;27.25;;;23.90;99.90;;;;;;4924021;28;20050;-79
2023/08/25 08:37:39;;;;;;;36.60;27.30;;;23.90;99.90;;;;;;4925033;28;20092;-78
2023/08/25 08:40:07;;;;;;;33.00;27.60;;;23.80;99.90;;;;;;4950404;28;20058;-78
2023/08/25 08:42:34;;;;;;;36.47;27.98;;;23.70;99.90;;;;;;4923631;28;20237;-79
2023/08/25 08:45:09;;;;;;;33.72;27.40;;;23.60;99.90;;;;;;4922300;28;20122;-77
2023/08/25 08:47:35;;;;;;;36.38;27.13;;;23.60;99.90;;;;;;4931582;28;20054;-79
2023/08/25 08:50:02;;;;;;;33.28;24.88;;;23.50;99.90;;;;;;4942480;28;20059;-79
2023/08/25 08:52:29;;;;;;;35.20;28.10;;;23.40;99.90;;;;;;4954119;28;20059;-79
2023/08/25 08:54:58;;;;;;;34.00;25.88;;;23.40;99.90;;;;;;4937984;28;20058;-79
2023/08/25 08:57:28;;;;;;;35.70;27.58;;;23.40;99.90;;;;;;4937879;28;20053;-80
2023/08/25 08:59:58;;;;;;;35.72;26.58;;;23.30;99.90;;;;;;4954709;28;20244;-80
2023/08/25 09:02:28;;;;;;;36.80;27.60;;;23.30;99.90;;;;;;4939578;28;20069;-79
2023/08/25 09:05:00;;;;;;;36.78;28.73;;;23.20;99.90;;;;;;4939780;28;20622;-79
2023/08/25 09:07:33;;;;;;;35.70;28.00;;;23.10;99.90;;;;;;4940101;28;20058;-80
2023/08/25 09:10:00;;;;;;;39.20;29.65;;;23.00;99.90;;;;;;4955684;28;20165;-80
2023/08/25 09:12:26;;;;;;;37.17;29.25;;;23.00;99.90;;;;;;4954332;28;20057;-80
2023/08/25 09:14:52;;;;;;;36.70;28.17;;;22.90;99.90;;;;;;4936795;28;20150;-79
2023/08/25 09:17:19;;;;;;;33.55;26.27;;;22.90;99.90;;;;;;4955448;28;20054;-80
2023/08/25 09:19:44;;;;;;;34.42;25.27;;;22.80;99.90;;;;;;4922066;28;20205;-79
2023/08/25 09:22:13;;;;;;;30.55;24.60;;;22.80;99.90;;;;;;4923024;28;20536;-79
2023/08/25 09:24:42;;;;;;;30.63;25.15;;;22.70;99.90;;;;;;4935989;28;20049;-79
2023/08/25 09:27:28;;;;;;;31.83;23.35;;;22.70;99.90;;;;;;4938217;28;20059;-79
2023/08/25 09:29:59;;;;;;;32.88;24.00;;;22.60;99.90;;;;;;4938603;28;20525;-79
2023/08/25 09:32:26;;;;;;;33.33;25.40;;;22.60;99.90;;;;;;4937258;28;20047;-79
2023/08/25 09:34:51;;;;;;;38.70;27.27;;;22.50;99.90;;;;;;4937445;28;20054;-77
2023/08/25 09:37:17;;;;;;;34.13;26.42;;;22.40;99.90;;;;;;4934411;28;20535;-77
2023/08/25 09:39:45;;;;;;;35.97;28.40;;;22.30;99.90;;;;;;4919055;28;20047;-78
2023/08/25 09:42:11;;;;;;;35.45;28.30;;;22.20;99.90;;;;;;4938150;28;20424;-78
2023/08/25 09:44:40;;;;;;;39.90;29.83;;;22.00;99.90;;;;;;4940597;28;20054;-78
2023/08/25 09:47:06;;;;;;;36.40;28.88;;;21.90;99.90;;;;;;4926146;28;20144;-78
2023/08/25 09:49:40;;;;;;;39.78;29.45;;;21.80;99.90;;;;;;4919905;28;20461;-78
2023/08/25 09:52:09;;;;;;;47.92;31.98;;;21.70;99.90;;;;;;4936494;28;20578;-80
2023/08/25 09:54:35;;;;;;;41.17;29.73;;;21.60;99.90;;;;;;4952443;28;20053;-78
2023/08/25 09:57:02;;;;;;;38.38;30.10;;;21.40;99.90;;;;;;4941985;28;20055;-77
2023/08/25 09:59:27;;;;;;;43.42;34.40;;;21.30;99.90;;;;;;4938090;28;20058;-77
2023/08/25 10:01:53;;;;;;;45.90;36.83;;;21.20;99.90;;;;;;4938569;28;20054;-77
2023/08/25 10:04:21;;;;;;;48.40;38.83;;;21.20;99.90;;;;;;4923185;28;20215;-77
2023/08/25 10:06:47;;;;;;;46.83;37.85;;;21.20;99.90;;;;;;4922127;28;20039;-77
2023/08/25 10:09:12;;;;;;;49.70;37.95;;;21.20;99.90;;;;;;4938478;28;20082;-77
2023/08/25 10:11:45;;;;;;;49.28;38.70;;;21.30;99.90;;;;;;4944578;28;20055;-76
2023/08/25 10:14:13;;;;;;;50.95;40.15;;;21.30;99.90;;;;;;4940944;28;20050;-78
2023/08/25 10:16:50;;;;;;;59.22;44.35;;;21.30;99.90;;;;;;4923372;28;20054;-76
2023/08/25 10:19:26;;;;;;;50.00;39.72;;;21.60;99.90;;;;;;4939330;28;20050;-76
2023/08/25 10:21:53;;;;;;;49.55;37.72;;;22.00;99.90;;;;;;4922416;28;20051;-76
2023/08/25 10:24:21;;;;;;;53.38;40.25;;;22.40;99.90;;;;;;4945706;28;20109;-75
2023/08/25 10:26:51;;;;;;;46.78;40.08;;;22.70;99.90;;;;;;4970864;28;20125;-77
2023/08/25 10:29:19;;;;;;;43.15;35.30;;;22.90;99.90;;;;;;4944641;28;20078;-77
2023/08/25 10:31:59;;;;;;;43.50;35.05;;;23.00;99.90;;;;;;4957685;28;20049;-76
2023/08/25 10:34:46;;;;;;;39.22;32.55;;;23.10;99.90;;;;;;4879524;29;20059;-76
2023/08/25 10:37:30;;;;;;;41.28;34.15;;;23.20;99.90;;;;;;4884113;29;20928;-76
2023/08/25 10:40:13;;;;;;;45.65;36.15;;;23.30;99.90;;;;;;4880122;29;20754;-75
2023/08/25 10:42:43;;;;;;;39.63;32.20;;;23.40;99.90;;;;;;4887669;29;20121;-85
2023/08/25 10:45:12;;;;;;;39.33;33.17;;;23.70;99.90;;;;;;4883652;29;20067;-75
2023/08/25 10:47:41;;;;;;;37.38;33.50;;;23.90;99.90;;;;;;4871942;29;20058;-75
2023/08/25 10:50:10;;;;;;;35.80;31.02;;;24.00;99.90;;;;;;4879047;29;20063;-75
2023/08/25 10:52:43;;;;;;;34.83;30.23;;;24.20;99.90;;;;;;4881657;29;20044;-75
2023/08/25 10:55:32;;;;;;;34.45;30.85;;;24.00;99.90;;;;;;4879384;29;20066;-76
2023/08/25 10:58:05;;;;;;;31.75;27.40;;;24.00;99.90;;;;;;4207260;29;10000735;-79
2023/08/25 11:00:43;;;;;;;32.78;28.58;;;23.80;99.90;;;;;;4897647;29;20056;-75
2023/08/25 11:03:09;;;;;;;32.50;25.92;;;23.60;99.90;;;;;;4879427;29;20243;-78
2023/08/25 11:05:35;;;;;;;35.70;28.73;;;23.50;99.90;;;;;;4906049;28;20055;-76
2023/08/25 11:08:04;;;;;;;32.65;29.05;;;23.30;99.90;;;;;;4919804;28;20358;-79
2023/08/25 11:10:35;;;;;;;31.90;27.27;;;23.30;99.90;;;;;;4934491;28;20047;-77
2023/08/25 11:13:06;;;;;;;38.35;30.52;;;23.30;99.90;;;;;;4928836;28;20046;-79
2023/08/25 11:15:36;;;;;;;32.05;26.23;;;23.30;99.90;;;;;;4933776;28;20059;-79
2023/08/25 11:18:02;;;;;;;35.78;26.13;;;23.30;99.90;;;;;;4938921;28;20050;-75
2023/08/25 11:20:29;;;;;;;31.02;27.50;;;23.40;99.90;;;;;;4936607;28;20135;-74
2023/08/25 11:22:58;;;;;;;31.17;26.00;;;23.70;99.90;;;;;;4935772;28;20069;-76
2023/08/25 11:25:28;;;;;;;31.02;25.85;;;24.20;99.90;;;;;;4936288;28;20429;-74
2023/08/25 11:27:55;;;;;;;26.92;24.00;;;24.40;99.90;;;;;;4951812;28;20343;-76
2023/08/25 11:30:21;;;;;;;31.40;25.00;;;24.50;99.90;;;;;;4945560;28;20086;-73
2023/08/25 11:32:48;;;;;;;29.13;24.88;;;24.60;99.90;;;;;;4929424;28;20137;-73
2023/08/25 11:35:14;;;;;;;32.55;24.42;;;24.70;99.90;;;;;;4930175;28;20078;-74
2023/08/25 11:37:46;;;;;;;27.10;24.17;;;24.80;99.90;;;;;;4951660;28;20064;-73
2023/08/25 11:40:18;;;;;;;28.35;23.63;;;24.90;99.90;;;;;;4923056;28;20709;-73
2023/08/25 11:42:46;;;;;;;26.42;22.77;;;25.00;99.90;;;;;;4945284;28;20051;-73
2023/08/25 11:45:12;;;;;;;28.05;21.83;;;25.00;99.90;;;;;;4936653;28;20724;-74
2023/08/25 11:47:38;;;;;;;29.00;23.58;;;25.00;99.90;;;;;;4939163;28;20397;-75
2023/08/25 11:50:05;;;;;;;27.25;21.65;;;24.90;99.90;;;;;;4931742;28;20144;-74
2023/08/25 11:52:35;;;;;;;24.67;19.70;;;24.90;99.90;;;;;;4940653;28;20046;-74
2023/08/25 11:55:02;;;;;;;22.90;18.05;;;24.80;99.90;;;;;;4936048;28;20062;-75
2023/08/25 11:57:37;;;;;;;21.13;17.77;;;24.70;99.90;;;;;;4921773;28;20057;-75
2023/08/25 12:00:05;;;;;;;23.92;21.38;;;24.90;99.90;;;;;;4936510;28;20149;-75
2023/08/25 12:02:31;;;;;;;23.52;21.00;;;24.90;99.90;;;;;;4930703;28;20622;-79
2023/08/25 12:04:59;;;;;;;26.50;21.75;;;24.80;99.90;;;;;;4954262;28;20496;-75
2023/08/25 12:07:29;;;;;;;23.05;19.13;;;24.80;99.90;;;;;;4929889;28;20138;-77
2023/08/25 12:09:57;;;;;;;17.33;14.88;;;24.60;99.90;;;;;;4954780;28;20528;-77
2023/08/25 12:12:24;;;;;;;18.92;15.20;;;24.40;99.90;;;;;;4935930;28;20046;-75
2023/08/25 12:14:53;;;;;;;19.83;16.95;;;24.20;99.90;;;;;;4945860;28;20047;-77
2023/08/25 12:17:28;;;;;;;18.83;16.73;;;24.10;99.90;;;;;;4948586;28;20042;-74
2023/08/25 12:19:55;;;;;;;21.25;17.75;;;23.90;99.90;;;;;;4931933;28;20051;-76
2023/08/25 12:22:23;;;;;;;20.17;15.82;;;23.90;99.90;;;;;;4935053;28;20058;-74
2023/08/25 12:24:49;;;;;;;17.02;15.25;;;23.80;99.90;;;;;;4942306;28;20130;-74
2023/08/25 12:27:16;;;;;;;16.77;14.55;;;23.80;99.90;;;;;;4937998;28;20053;-74